sensor_id;sensor_type;location;lat;lon;timestamp;P1;durP1;ratioP1;P2;durP2;ratioP2
72065;SDS011;59939;52.516;13.420;2023-07-22T00:02:39;13.35;;;6.53;;
72065;SDS011;59939;52.516;13.420;2023-07-22T00:05:43;14.65;;;7.25;;
72065;SDS011;59939;52.516;13.420;2023-07-22T00:08:47;15.65;;;8.13;;
72065;SDS011;59939;52.516;13.420;2023-07-22T00:11:51;15.63;;;7.28;;
72065;SDS011;59939;52.516;13.420;2023-07-22T00:14:57;14.10;;;6.65;;
72065;SDS011;59939;52.516;13.420;2023-07-22T00:18:01;13.02;;;6.88;;
72065;SDS011;59939;52.516;13.420;2023-07-22T00:21:05;12.55;;;6.22;;
72065;SDS011;59939;52.516;13.420;2023-07-22T00:24:10;15.98;;;7.78;;
72065;SDS011;59939;52.516;13.420;2023-07-22T00:27:15;15.10;;;7.68;;
72065;SDS011;59939;52.516;13.420;2023-07-22T00:30:19;13.63;;;6.18;;
72065;SDS011;59939;52.516;13.420;2023-07-22T00:33:22;14.88;;;6.75;;
72065;SDS011;59939;52.516;13.420;2023-07-22T00:36:29;15.68;;;7.38;;
72065;SDS011;59939;52.516;13.420;2023-07-22T00:39:36;15.15;;;7.78;;
72065;SDS011;59939;52.516;13.420;2023-07-22T00:42:40;13.93;;;6.97;;
72065;SDS011;59939;52.516;13.420;2023-07-22T00:45:44;17.42;;;7.72;;
72065;SDS011;59939;52.516;13.420;2023-07-22T00:48:48;16.13;;;7.82;;
72065;SDS011;59939;52.516;13.420;2023-07-22T00:51:56;13.50;;;6.93;;
72065;SDS011;59939;52.516;13.420;2023-07-22T00:55:02;12.85;;;6.43;;
72065;SDS011;59939;52.516;13.420;2023-07-22T00:58:06;13.75;;;7.47;;
72065;SDS011;59939;52.516;13.420;2023-07-22T01:01:18;13.73;;;7.13;;
72065;SDS011;59939;52.516;13.420;2023-07-22T01:04:25;11.38;;;4.90;;
72065;SDS011;59939;52.516;13.420;2023-07-22T01:07:33;13.88;;;6.35;;
72065;SDS011;59939;52.516;13.420;2023-07-22T01:10:38;11.65;;;5.57;;
72065;SDS011;59939;52.516;13.420;2023-07-22T01:13:42;11.05;;;4.80;;
72065;SDS011;59939;52.516;13.420;2023-07-22T01:16:47;13.48;;;6.85;;
72065;SDS011;59939;52.516;13.420;2023-07-22T01:19:51;14.75;;;7.00;;
72065;SDS011;59939;52.516;13.420;2023-07-22T01:22:55;11.77;;;5.20;;
72065;SDS011;59939;52.516;13.420;2023-07-22T01:26:01;12.48;;;6.15;;
72065;SDS011;59939;52.516;13.420;2023-07-22T01:29:06;13.68;;;6.38;;
72065;SDS011;59939;52.516;13.420;2023-07-22T01:32:16;15.57;;;8.40;;
72065;SDS011;59939;52.516;13.420;2023-07-22T01:35:20;13.60;;;6.65;;
72065;SDS011;59939;52.516;13.420;2023-07-22T01:38:25;17.90;;;8.45;;
72065;SDS011;59939;52.516;13.420;2023-07-22T01:41:37;13.13;;;6.45;;
72065;SDS011;59939;52.516;13.420;2023-07-22T01:44:41;16.75;;;8.68;;
72065;SDS011;59939;52.516;13.420;2023-07-22T01:47:45;18.00;;;8.45;;
72065;SDS011;59939;52.516;13.420;2023-07-22T01:50:52;14.85;;;8.27;;
72065;SDS011;59939;52.516;13.420;2023-07-22T01:53:57;11.77;;;6.05;;
72065;SDS011;59939;52.516;13.420;2023-07-22T01:57:01;14.70;;;8.10;;
72065;SDS011;59939;52.516;13.420;2023-07-22T02:00:05;18.20;;;8.50;;
72065;SDS011;59939;52.516;13.420;2023-07-22T02:03:15;16.50;;;8.43;;
72065;SDS011;59939;52.516;13.420;2023-07-22T02:06:19;14.23;;;7.47;;
72065;SDS011;59939;52.516;13.420;2023-07-22T02:09:23;15.40;;;5.68;;
72065;SDS011;59939;52.516;13.420;2023-07-22T02:12:29;15.00;;;5.57;;
72065;SDS011;59939;52.516;13.420;2023-07-22T02:15:33;12.63;;;5.68;;
72065;SDS011;59939;52.516;13.420;2023-07-22T02:18:38;10.57;;;5.15;;
72065;SDS011;59939;52.516;13.420;2023-07-22T02:21:56;13.50;;;6.55;;
72065;SDS011;59939;52.516;13.420;2023-07-22T02:25:00;15.93;;;7.88;;
72065;SDS011;59939;52.516;13.420;2023-07-22T02:28:12;16.58;;;7.35;;
72065;SDS011;59939;52.516;13.420;2023-07-22T02:31:18;14.02;;;6.93;;
72065;SDS011;59939;52.516;13.420;2023-07-22T02:34:23;13.98;;;5.97;;
72065;SDS011;59939;52.516;13.420;2023-07-22T02:37:27;13.77;;;5.18;;
72065;SDS011;59939;52.516;13.420;2023-07-22T02:40:34;14.48;;;6.97;;
72065;SDS011;59939;52.516;13.420;2023-07-22T02:43:41;16.35;;;8.50;;
72065;SDS011;59939;52.516;13.420;2023-07-22T02:46:47;17.52;;;6.22;;
72065;SDS011;59939;52.516;13.420;2023-07-22T02:49:52;15.48;;;7.22;;
72065;SDS011;59939;52.516;13.420;2023-07-22T02:52:56;13.80;;;7.47;;
72065;SDS011;59939;52.516;13.420;2023-07-22T02:56:03;14.32;;;6.10;;
72065;SDS011;59939;52.516;13.420;2023-07-22T02:59:09;15.02;;;6.90;;
72065;SDS011;59939;52.516;13.420;2023-07-22T03:02:15;10.48;;;4.47;;
72065;SDS011;59939;52.516;13.420;2023-07-22T03:05:19;10.95;;;5.07;;
72065;SDS011;59939;52.516;13.420;2023-07-22T03:11:57;11.93;;;5.82;;
72065;SDS011;59939;52.516;13.420;2023-07-22T03:15:01;14.70;;;7.25;;
72065;SDS011;59939;52.516;13.420;2023-07-22T03:18:07;12.38;;;5.35;;
72065;SDS011;59939;52.516;13.420;2023-07-22T03:21:13;12.82;;;5.20;;
72065;SDS011;59939;52.516;13.420;2023-07-22T03:24:17;12.70;;;5.35;;
72065;SDS011;59939;52.516;13.420;2023-07-22T03:27:21;14.95;;;6.22;;
72065;SDS011;59939;52.516;13.420;2023-07-22T03:30:25;10.70;;;4.07;;
72065;SDS011;59939;52.516;13.420;2023-07-22T03:33:29;15.25;;;6.45;;
72065;SDS011;59939;52.516;13.420;2023-07-22T03:36:34;13.10;;;5.63;;
72065;SDS011;59939;52.516;13.420;2023-07-22T03:39:38;13.77;;;6.45;;
72065;SDS011;59939;52.516;13.420;2023-07-22T03:42:42;13.35;;;5.80;;
72065;SDS011;59939;52.516;13.420;2023-07-22T03:45:46;12.35;;;6.35;;
72065;SDS011;59939;52.516;13.420;2023-07-22T03:48:50;12.93;;;5.80;;
72065;SDS011;59939;52.516;13.420;2023-07-22T03:51:54;13.65;;;7.40;;
72065;SDS011;59939;52.516;13.420;2023-07-22T03:55:05;13.90;;;6.30;;
72065;SDS011;59939;52.516;13.420;2023-07-22T03:58:09;14.20;;;5.93;;
72065;SDS011;59939;52.516;13.420;2023-07-22T04:01:13;14.75;;;6.18;;
72065;SDS011;59939;52.516;13.420;2023-07-22T04:04:17;12.57;;;5.68;;
72065;SDS011;59939;52.516;13.420;2023-07-22T04:07:21;10.63;;;5.13;;
72065;SDS011;59939;52.516;13.420;2023-07-22T04:10:25;14.70;;;5.70;;
72065;SDS011;59939;52.516;13.420;2023-07-22T04:13:36;11.77;;;5.30;;
72065;SDS011;59939;52.516;13.420;2023-07-22T04:16:40;14.30;;;5.93;;
72065;SDS011;59939;52.516;13.420;2023-07-22T04:19:44;8.30;;;3.53;;
72065;SDS011;59939;52.516;13.420;2023-07-22T04:22:50;11.60;;;5.38;;
72065;SDS011;59939;52.516;13.420;2023-07-22T04:25:56;12.20;;;4.70;;
72065;SDS011;59939;52.516;13.420;2023-07-22T04:29:02;15.05;;;5.07;;
72065;SDS011;59939;52.516;13.420;2023-07-22T04:32:07;8.23;;;3.50;;
72065;SDS011;59939;52.516;13.420;2023-07-22T04:35:25;14.77;;;5.10;;
72065;SDS011;59939;52.516;13.420;2023-07-22T04:38:29;13.25;;;4.53;;
72065;SDS011;59939;52.516;13.420;2023-07-22T04:41:33;12.75;;;4.72;;
72065;SDS011;59939;52.516;13.420;2023-07-22T04:44:37;17.30;;;4.85;;
72065;SDS011;59939;52.516;13.420;2023-07-22T04:47:44;15.90;;;5.68;;
72065;SDS011;59939;52.516;13.420;2023-07-22T04:50:54;10.65;;;4.50;;
72065;SDS011;59939;52.516;13.420;2023-07-22T04:54:02;10.73;;;4.47;;
72065;SDS011;59939;52.516;13.420;2023-07-22T04:57:06;12.85;;;5.55;;
72065;SDS011;59939;52.516;13.420;2023-07-22T05:00:14;12.77;;;5.35;;
72065;SDS011;59939;52.516;13.420;2023-07-22T05:03:21;13.82;;;5.65;;
72065;SDS011;59939;52.516;13.420;2023-07-22T05:06:28;14.95;;;6.30;;
72065;SDS011;59939;52.516;13.420;2023-07-22T05:09:33;15.05;;;6.43;;
72065;SDS011;59939;52.516;13.420;2023-07-22T05:12:37;13.05;;;5.60;;
72065;SDS011;59939;52.516;13.420;2023-07-22T05:15:41;14.07;;;5.55;;
72065;SDS011;59939;52.516;13.420;2023-07-22T05:18:48;15.10;;;5.95;;
72065;SDS011;59939;52.516;13.420;2023-07-22T05:21:52;14.52;;;5.78;;
72065;SDS011;59939;52.516;13.420;2023-07-22T05:24:59;14.55;;;4.20;;
72065;SDS011;59939;52.516;13.420;2023-07-22T05:28:03;15.07;;;6.50;;
72065;SDS011;59939;52.516;13.420;2023-07-22T05:31:06;12.43;;;4.32;;
72065;SDS011;59939;52.516;13.420;2023-07-22T05:34:11;17.27;;;6.53;;
72065;SDS011;59939;52.516;13.420;2023-07-22T05:37:14;15.75;;;6.00;;
72065;SDS011;59939;52.516;13.420;2023-07-22T05:40:18;9.45;;;4.20;;
72065;SDS011;59939;52.516;13.420;2023-07-22T05:43:22;13.43;;;5.32;;
72065;SDS011;59939;52.516;13.420;2023-07-22T05:46:26;19.05;;;5.72;;
72065;SDS011;59939;52.516;13.420;2023-07-22T05:49:29;15.60;;;6.95;;
72065;SDS011;59939;52.516;13.420;2023-07-22T05:52:33;17.02;;;6.82;;
72065;SDS011;59939;52.516;13.420;2023-07-22T05:55:37;15.65;;;7.18;;
72065;SDS011;59939;52.516;13.420;2023-07-22T05:58:40;13.10;;;5.55;;
72065;SDS011;59939;52.516;13.420;2023-07-22T06:01:44;12.98;;;5.10;;
72065;SDS011;59939;52.516;13.420;2023-07-22T06:04:48;16.75;;;7.70;;
72065;SDS011;59939;52.516;13.420;2023-07-22T06:07:52;18.65;;;7.47;;
72065;SDS011;59939;52.516;13.420;2023-07-22T06:10:58;15.43;;;6.50;;
72065;SDS011;59939;52.516;13.420;2023-07-22T06:14:01;16.42;;;7.45;;
72065;SDS011;59939;52.516;13.420;2023-07-22T06:17:06;15.10;;;6.82;;
72065;SDS011;59939;52.516;13.420;2023-07-22T06:20:10;18.15;;;5.68;;
72065;SDS011;59939;52.516;13.420;2023-07-22T06:23:14;10.48;;;4.35;;
72065;SDS011;59939;52.516;13.420;2023-07-22T06:26:19;14.88;;;6.00;;
72065;SDS011;59939;52.516;13.420;2023-07-22T06:29:24;16.33;;;7.40;;
72065;SDS011;59939;52.516;13.420;2023-07-22T06:32:30;14.70;;;5.95;;
72065;SDS011;59939;52.516;13.420;2023-07-22T06:35:34;19.10;;;7.32;;
72065;SDS011;59939;52.516;13.420;2023-07-22T06:38:38;14.85;;;4.88;;
72065;SDS011;59939;52.516;13.420;2023-07-22T06:41:41;15.02;;;6.03;;
72065;SDS011;59939;52.516;13.420;2023-07-22T06:44:45;17.70;;;5.47;;
72065;SDS011;59939;52.516;13.420;2023-07-22T06:47:49;15.00;;;5.35;;
72065;SDS011;59939;52.516;13.420;2023-07-22T06:50:53;14.07;;;5.22;;
72065;SDS011;59939;52.516;13.420;2023-07-22T06:53:56;11.40;;;4.10;;
72065;SDS011;59939;52.516;13.420;2023-07-22T06:57:00;13.25;;;4.60;;
72065;SDS011;59939;52.516;13.420;2023-07-22T07:00:04;13.45;;;5.15;;
72065;SDS011;59939;52.516;13.420;2023-07-22T07:03:09;14.25;;;5.70;;
72065;SDS011;59939;52.516;13.420;2023-07-22T07:06:13;9.38;;;3.95;;
72065;SDS011;59939;52.516;13.420;2023-07-22T07:09:16;12.25;;;4.40;;
72065;SDS011;59939;52.516;13.420;2023-07-22T07:12:20;10.43;;;3.42;;
72065;SDS011;59939;52.516;13.420;2023-07-22T07:15:25;10.57;;;3.53;;
72065;SDS011;59939;52.516;13.420;2023-07-22T07:18:29;10.38;;;3.78;;
72065;SDS011;59939;52.516;13.420;2023-07-22T07:21:33;10.65;;;3.47;;
72065;SDS011;59939;52.516;13.420;2023-07-22T07:24:37;11.13;;;3.42;;
72065;SDS011;59939;52.516;13.420;2023-07-22T07:27:41;11.35;;;3.63;;
72065;SDS011;59939;52.516;13.420;2023-07-22T07:30:47;13.82;;;3.33;;
72065;SDS011;59939;52.516;13.420;2023-07-22T07:33:51;8.43;;;2.97;;
72065;SDS011;59939;52.516;13.420;2023-07-22T07:36:58;12.15;;;3.75;;
72065;SDS011;59939;52.516;13.420;2023-07-22T07:40:03;17.48;;;3.90;;
72065;SDS011;59939;52.516;13.420;2023-07-22T07:43:08;10.38;;;3.80;;
72065;SDS011;59939;52.516;13.420;2023-07-22T07:46:20;11.00;;;4.13;;
72065;SDS011;59939;52.516;13.420;2023-07-22T07:49:27;9.65;;;3.28;;
72065;SDS011;59939;52.516;13.420;2023-07-22T07:52:31;4.50;;;2.03;;
72065;SDS011;59939;52.516;13.420;2023-07-22T07:55:37;10.73;;;3.45;;
72065;SDS011;59939;52.516;13.420;2023-07-22T07:58:42;12.15;;;3.00;;
72065;SDS011;59939;52.516;13.420;2023-07-22T08:01:51;11.43;;;4.05;;
72065;SDS011;59939;52.516;13.420;2023-07-22T08:05:28;11.10;;;3.42;;
72065;SDS011;59939;52.516;13.420;2023-07-22T08:13:52;8.23;;;2.63;;
72065;SDS011;59939;52.516;13.420;2023-07-22T08:16:59;9.63;;;2.95;;
72065;SDS011;59939;52.516;13.420;2023-07-22T08:20:04;9.73;;;3.33;;
72065;SDS011;59939;52.516;13.420;2023-07-22T08:23:17;12.77;;;4.20;;
72065;SDS011;59939;52.516;13.420;2023-07-22T08:26:23;9.35;;;3.63;;
72065;SDS011;59939;52.516;13.420;2023-07-22T08:29:38;13.57;;;4.63;;
72065;SDS011;59939;52.516;13.420;2023-07-22T08:33:09;10.60;;;4.22;;
72065;SDS011;59939;52.516;13.420;2023-07-22T08:40:59;12.02;;;4.43;;
72065;SDS011;59939;52.516;13.420;2023-07-22T08:45:03;9.75;;;3.38;;
72065;SDS011;59939;52.516;13.420;2023-07-22T08:57:33;10.23;;;3.78;;
72065;SDS011;59939;52.516;13.420;2023-07-22T09:00:45;8.70;;;3.25;;
72065;SDS011;59939;52.516;13.420;2023-07-22T09:03:51;14.50;;;4.70;;
72065;SDS011;59939;52.516;13.420;2023-07-22T09:06:57;12.10;;;3.90;;
72065;SDS011;59939;52.516;13.420;2023-07-22T09:10:06;12.48;;;3.38;;
72065;SDS011;59939;52.516;13.420;2023-07-22T09:36:26;6.97;;;2.53;;
72065;SDS011;59939;52.516;13.420;2023-07-22T09:54:44;5.35;;;2.17;;
72065;SDS011;59939;52.516;13.420;2023-07-22T09:57:53;10.30;;;3.08;;
72065;SDS011;59939;52.516;13.420;2023-07-22T10:00:57;5.38;;;1.83;;
72065;SDS011;59939;52.516;13.420;2023-07-22T10:04:05;14.15;;;3.42;;
72065;SDS011;59939;52.516;13.420;2023-07-22T10:07:09;10.07;;;3.22;;
72065;SDS011;59939;52.516;13.420;2023-07-22T10:10:32;6.90;;;2.25;;
72065;SDS011;59939;52.516;13.420;2023-07-22T10:13:38;8.32;;;2.55;;
72065;SDS011;59939;52.516;13.420;2023-07-22T10:16:43;7.63;;;2.67;;
72065;SDS011;59939;52.516;13.420;2023-07-22T10:19:48;7.13;;;2.63;;
72065;SDS011;59939;52.516;13.420;2023-07-22T10:22:54;9.57;;;3.30;;
72065;SDS011;59939;52.516;13.420;2023-07-22T10:25:57;6.47;;;2.40;;
72065;SDS011;59939;52.516;13.420;2023-07-22T10:29:01;4.30;;;1.85;;
72065;SDS011;59939;52.516;13.420;2023-07-22T10:32:19;8.95;;;2.50;;
72065;SDS011;59939;52.516;13.420;2023-07-22T10:38:37;7.25;;;2.75;;
72065;SDS011;59939;52.516;13.420;2023-07-22T10:41:49;8.73;;;2.92;;
72065;SDS011;59939;52.516;13.420;2023-07-22T10:44:55;6.18;;;2.42;;
72065;SDS011;59939;52.516;13.420;2023-07-22T10:48:12;6.88;;;2.60;;
72065;SDS011;59939;52.516;13.420;2023-07-22T10:51:16;7.90;;;2.90;;
72065;SDS011;59939;52.516;13.420;2023-07-22T10:54:31;9.43;;;3.08;;
72065;SDS011;59939;52.516;13.420;2023-07-22T10:57:47;7.47;;;2.47;;
72065;SDS011;59939;52.516;13.420;2023-07-22T11:00:51;7.35;;;2.78;;
72065;SDS011;59939;52.516;13.420;2023-07-22T11:07:31;10.80;;;3.22;;
72065;SDS011;59939;52.516;13.420;2023-07-22T11:10:35;11.35;;;3.20;;
72065;SDS011;59939;52.516;13.420;2023-07-22T11:13:41;12.07;;;4.07;;
72065;SDS011;59939;52.516;13.420;2023-07-22T11:16:57;8.20;;;3.13;;
72065;SDS011;59939;52.516;13.420;2023-07-22T11:20:04;9.15;;;2.42;;
72065;SDS011;59939;52.516;13.420;2023-07-22T11:23:07;9.77;;;3.13;;
72065;SDS011;59939;52.516;13.420;2023-07-22T11:29:43;8.73;;;2.85;;
72065;SDS011;59939;52.516;13.420;2023-07-22T11:32:48;10.10;;;3.72;;
72065;SDS011;59939;52.516;13.420;2023-07-22T11:35:54;6.35;;;2.15;;
72065;SDS011;59939;52.516;13.420;2023-07-22T11:39:08;12.05;;;3.20;;
72065;SDS011;59939;52.516;13.420;2023-07-22T11:42:12;9.73;;;3.70;;
72065;SDS011;59939;52.516;13.420;2023-07-22T11:45:24;9.43;;;2.75;;
72065;SDS011;59939;52.516;13.420;2023-07-22T11:48:28;9.18;;;3.08;;
72065;SDS011;59939;52.516;13.420;2023-07-22T11:51:32;9.65;;;3.35;;
72065;SDS011;59939;52.516;13.420;2023-07-22T11:54:40;11.00;;;3.80;;
72065;SDS011;59939;52.516;13.420;2023-07-22T11:57:51;8.82;;;3.60;;
72065;SDS011;59939;52.516;13.420;2023-07-22T12:01:05;10.48;;;3.00;;
72065;SDS011;59939;52.516;13.420;2023-07-22T12:04:11;9.07;;;2.80;;
72065;SDS011;59939;52.516;13.420;2023-07-22T12:07:31;9.50;;;3.58;;
72065;SDS011;59939;52.516;13.420;2023-07-22T12:10:43;7.53;;;2.85;;
72065;SDS011;59939;52.516;13.420;2023-07-22T12:13:47;12.48;;;3.25;;
72065;SDS011;59939;52.516;13.420;2023-07-22T12:16:55;11.77;;;3.53;;
72065;SDS011;59939;52.516;13.420;2023-07-22T12:20:01;9.07;;;3.17;;
72065;SDS011;59939;52.516;13.420;2023-07-22T12:23:11;7.40;;;2.92;;
72065;SDS011;59939;52.516;13.420;2023-07-22T12:26:22;10.30;;;3.58;;
72065;SDS011;59939;52.516;13.420;2023-07-22T12:29:31;9.48;;;3.72;;
72065;SDS011;59939;52.516;13.420;2023-07-22T12:32:37;8.73;;;3.05;;
72065;SDS011;59939;52.516;13.420;2023-07-22T12:35:44;9.65;;;3.42;;
72065;SDS011;59939;52.516;13.420;2023-07-22T12:38:51;8.43;;;3.10;;
72065;SDS011;59939;52.516;13.420;2023-07-22T12:41:55;8.32;;;2.88;;
72065;SDS011;59939;52.516;13.420;2023-07-22T12:45:02;9.35;;;3.33;;
72065;SDS011;59939;52.516;13.420;2023-07-22T12:48:08;8.27;;;2.92;;
72065;SDS011;59939;52.516;13.420;2023-07-22T12:51:12;11.07;;;3.67;;
72065;SDS011;59939;52.516;13.420;2023-07-22T12:54:19;13.73;;;3.03;;
72065;SDS011;59939;52.516;13.420;2023-07-22T12:57:23;10.35;;;3.90;;
72065;SDS011;59939;52.516;13.420;2023-07-22T13:00:27;8.15;;;3.22;;
72065;SDS011;59939;52.516;13.420;2023-07-22T13:03:30;8.73;;;3.33;;
72065;SDS011;59939;52.516;13.420;2023-07-22T13:06:34;11.75;;;3.70;;
72065;SDS011;59939;52.516;13.420;2023-07-22T13:09:40;9.43;;;3.92;;
72065;SDS011;59939;52.516;13.420;2023-07-22T13:12:46;8.57;;;3.60;;
72065;SDS011;59939;52.516;13.420;2023-07-22T13:15:50;10.95;;;4.53;;
72065;SDS011;59939;52.516;13.420;2023-07-22T13:18:53;9.88;;;3.10;;
72065;SDS011;59939;52.516;13.420;2023-07-22T13:21:58;10.32;;;4.35;;
72065;SDS011;59939;52.516;13.420;2023-07-22T13:25:02;9.65;;;3.15;;
72065;SDS011;59939;52.516;13.420;2023-07-22T13:28:10;14.63;;;4.70;;
72065;SDS011;59939;52.516;13.420;2023-07-22T13:31:13;12.05;;;3.13;;
72065;SDS011;59939;52.516;13.420;2023-07-22T13:34:20;9.68;;;3.17;;
72065;SDS011;59939;52.516;13.420;2023-07-22T13:37:26;10.77;;;3.90;;
72065;SDS011;59939;52.516;13.420;2023-07-22T13:40:31;10.90;;;3.72;;
72065;SDS011;59939;52.516;13.420;2023-07-22T13:43:35;9.80;;;3.92;;
72065;SDS011;59939;52.516;13.420;2023-07-22T13:46:38;7.40;;;2.88;;
72065;SDS011;59939;52.516;13.420;2023-07-22T13:49:42;12.25;;;4.70;;
72065;SDS011;59939;52.516;13.420;2023-07-22T13:52:47;9.68;;;3.40;;
72065;SDS011;59939;52.516;13.420;2023-07-22T13:55:50;11.60;;;3.33;;
72065;SDS011;59939;52.516;13.420;2023-07-22T13:58:55;10.45;;;3.92;;
72065;SDS011;59939;52.516;13.420;2023-07-22T14:02:01;10.75;;;3.95;;
72065;SDS011;59939;52.516;13.420;2023-07-22T14:05:08;13.93;;;4.38;;
72065;SDS011;59939;52.516;13.420;2023-07-22T14:08:14;12.65;;;4.35;;
72065;SDS011;59939;52.516;13.420;2023-07-22T14:11:18;8.50;;;3.67;;
72065;SDS011;59939;52.516;13.420;2023-07-22T14:14:24;13.02;;;3.85;;
72065;SDS011;59939;52.516;13.420;2023-07-22T14:17:32;9.93;;;3.70;;
72065;SDS011;59939;52.516;13.420;2023-07-22T14:20:38;10.55;;;3.83;;
72065;SDS011;59939;52.516;13.420;2023-07-22T14:23:42;11.60;;;4.15;;
72065;SDS011;59939;52.516;13.420;2023-07-22T14:26:48;9.38;;;3.70;;
72065;SDS011;59939;52.516;13.420;2023-07-22T14:29:51;10.40;;;3.92;;
72065;SDS011;59939;52.516;13.420;2023-07-22T14:32:55;9.80;;;3.47;;
72065;SDS011;59939;52.516;13.420;2023-07-22T14:35:59;10.07;;;4.22;;
72065;SDS011;59939;52.516;13.420;2023-07-22T14:39:11;9.27;;;3.80;;
72065;SDS011;59939;52.516;13.420;2023-07-22T14:42:15;5.60;;;2.47;;
72065;SDS011;59939;52.516;13.420;2023-07-22T14:45:21;8.00;;;3.05;;
72065;SDS011;59939;52.516;13.420;2023-07-22T14:48:25;12.45;;;4.03;;
72065;SDS011;59939;52.516;13.420;2023-07-22T14:51:32;10.65;;;4.32;;
72065;SDS011;59939;52.516;13.420;2023-07-22T14:54:36;13.40;;;4.70;;
72065;SDS011;59939;52.516;13.420;2023-07-22T14:57:48;9.90;;;3.60;;
72065;SDS011;59939;52.516;13.420;2023-07-22T15:00:59;9.85;;;3.97;;
72065;SDS011;59939;52.516;13.420;2023-07-22T15:04:05;11.43;;;4.50;;
72065;SDS011;59939;52.516;13.420;2023-07-22T15:07:10;10.40;;;4.10;;
72065;SDS011;59939;52.516;13.420;2023-07-22T15:10:15;8.73;;;3.47;;
72065;SDS011;59939;52.516;13.420;2023-07-22T15:13:18;9.35;;;3.72;;
72065;SDS011;59939;52.516;13.420;2023-07-22T15:16:27;11.32;;;4.60;;
72065;SDS011;59939;52.516;13.420;2023-07-22T15:19:31;9.70;;;3.60;;
72065;SDS011;59939;52.516;13.420;2023-07-22T15:22:34;9.48;;;3.60;;
72065;SDS011;59939;52.516;13.420;2023-07-22T15:25:38;9.68;;;3.97;;
72065;SDS011;59939;52.516;13.420;2023-07-22T15:28:42;11.93;;;4.55;;
72065;SDS011;59939;52.516;13.420;2023-07-22T15:31:46;11.18;;;4.75;;
72065;SDS011;59939;52.516;13.420;2023-07-22T15:34:57;11.40;;;4.57;;
72065;SDS011;59939;52.516;13.420;2023-07-22T15:38:01;11.55;;;4.47;;
72065;SDS011;59939;52.516;13.420;2023-07-22T15:41:07;14.25;;;4.53;;
72065;SDS011;59939;52.516;13.420;2023-07-22T15:44:11;12.23;;;4.35;;
72065;SDS011;59939;52.516;13.420;2023-07-22T15:47:22;10.70;;;3.72;;
72065;SDS011;59939;52.516;13.420;2023-07-22T15:50:26;11.48;;;4.53;;
72065;SDS011;59939;52.516;13.420;2023-07-22T15:53:30;9.85;;;4.20;;
72065;SDS011;59939;52.516;13.420;2023-07-22T15:56:33;9.52;;;3.95;;
72065;SDS011;59939;52.516;13.420;2023-07-22T15:59:37;9.13;;;3.75;;
72065;SDS011;59939;52.516;13.420;2023-07-22T16:02:44;11.75;;;4.00;;
72065;SDS011;59939;52.516;13.420;2023-07-22T16:05:47;10.23;;;3.80;;
72065;SDS011;59939;52.516;13.420;2023-07-22T16:08:51;11.13;;;3.97;;
72065;SDS011;59939;52.516;13.420;2023-07-22T16:11:55;12.13;;;4.30;;
72065;SDS011;59939;52.516;13.420;2023-07-22T16:14:58;10.05;;;4.10;;
72065;SDS011;59939;52.516;13.420;2023-07-22T16:18:02;9.88;;;3.92;;
72065;SDS011;59939;52.516;13.420;2023-07-22T16:21:07;12.05;;;4.35;;
72065;SDS011;59939;52.516;13.420;2023-07-22T16:24:14;11.05;;;4.63;;
72065;SDS011;59939;52.516;13.420;2023-07-22T16:27:19;11.00;;;4.40;;
72065;SDS011;59939;52.516;13.420;2023-07-22T16:30:22;10.45;;;4.10;;
72065;SDS011;59939;52.516;13.420;2023-07-22T16:33:26;10.77;;;3.88;;
72065;SDS011;59939;52.516;13.420;2023-07-22T16:36:32;9.10;;;3.75;;
72065;SDS011;59939;52.516;13.420;2023-07-22T16:39:50;10.27;;;3.90;;
72065;SDS011;59939;52.516;13.420;2023-07-22T16:42:57;8.88;;;3.88;;
72065;SDS011;59939;52.516;13.420;2023-07-22T16:46:03;9.90;;;3.47;;
72065;SDS011;59939;52.516;13.420;2023-07-22T16:49:09;9.50;;;3.80;;
72065;SDS011;59939;52.516;13.420;2023-07-22T16:52:16;12.63;;;4.30;;
72065;SDS011;59939;52.516;13.420;2023-07-22T16:55:34;9.27;;;3.45;;
72065;SDS011;59939;52.516;13.420;2023-07-22T16:58:38;9.43;;;3.88;;
72065;SDS011;59939;52.516;13.420;2023-07-22T17:01:49;9.15;;;3.97;;
72065;SDS011;59939;52.516;13.420;2023-07-22T17:04:53;12.15;;;4.22;;
72065;SDS011;59939;52.516;13.420;2023-07-22T17:08:04;8.27;;;3.47;;
72065;SDS011;59939;52.516;13.420;2023-07-22T17:11:08;12.98;;;3.35;;
72065;SDS011;59939;52.516;13.420;2023-07-22T17:14:14;11.68;;;4.45;;
72065;SDS011;59939;52.516;13.420;2023-07-22T17:17:19;10.95;;;4.35;;
72065;SDS011;59939;52.516;13.420;2023-07-22T17:20:23;12.50;;;3.95;;
72065;SDS011;59939;52.516;13.420;2023-07-22T17:23:30;9.93;;;3.70;;
72065;SDS011;59939;52.516;13.420;2023-07-22T17:26:34;10.50;;;3.65;;
72065;SDS011;59939;52.516;13.420;2023-07-22T17:29:41;10.63;;;4.00;;
72065;SDS011;59939;52.516;13.420;2023-07-22T17:32:47;8.82;;;4.00;;
72065;SDS011;59939;52.516;13.420;2023-07-22T17:36:01;12.15;;;3.92;;
72065;SDS011;59939;52.516;13.420;2023-07-22T17:39:05;10.65;;;3.72;;
72065;SDS011;59939;52.516;13.420;2023-07-22T17:42:09;10.50;;;4.30;;
72065;SDS011;59939;52.516;13.420;2023-07-22T17:45:13;12.40;;;4.25;;
72065;SDS011;59939;52.516;13.420;2023-07-22T17:48:19;10.25;;;3.88;;
72065;SDS011;59939;52.516;13.420;2023-07-22T17:51:24;10.40;;;3.80;;
72065;SDS011;59939;52.516;13.420;2023-07-22T17:54:28;11.40;;;3.78;;
72065;SDS011;59939;52.516;13.420;2023-07-22T17:57:32;11.48;;;4.47;;
72065;SDS011;59939;52.516;13.420;2023-07-22T18:00:38;12.00;;;4.93;;
72065;SDS011;59939;52.516;13.420;2023-07-22T18:03:43;12.52;;;4.10;;
72065;SDS011;59939;52.516;13.420;2023-07-22T18:06:47;12.15;;;4.57;;
72065;SDS011;59939;52.516;13.420;2023-07-22T18:09:50;10.90;;;4.28;;
72065;SDS011;59939;52.516;13.420;2023-07-22T18:12:57;10.23;;;4.20;;
72065;SDS011;59939;52.516;13.420;2023-07-22T18:16:01;10.75;;;4.13;;
72065;SDS011;59939;52.516;13.420;2023-07-22T18:19:08;10.77;;;3.85;;
72065;SDS011;59939;52.516;13.420;2023-07-22T18:22:15;10.07;;;4.10;;
72065;SDS011;59939;52.516;13.420;2023-07-22T18:25:19;11.90;;;4.10;;
72065;SDS011;59939;52.516;13.420;2023-07-22T18:28:26;12.10;;;4.35;;
72065;SDS011;59939;52.516;13.420;2023-07-22T18:31:30;11.02;;;4.63;;
72065;SDS011;59939;52.516;13.420;2023-07-22T18:34:35;10.25;;;4.28;;
72065;SDS011;59939;52.516;13.420;2023-07-22T18:37:39;13.23;;;4.65;;
72065;SDS011;59939;52.516;13.420;2023-07-22T18:40:52;13.60;;;5.57;;
72065;SDS011;59939;52.516;13.420;2023-07-22T18:43:58;11.93;;;4.50;;
72065;SDS011;59939;52.516;13.420;2023-07-22T18:47:01;11.13;;;4.55;;
72065;SDS011;59939;52.516;13.420;2023-07-22T18:50:08;12.40;;;4.90;;
72065;SDS011;59939;52.516;13.420;2023-07-22T18:53:19;13.05;;;4.78;;
72065;SDS011;59939;52.516;13.420;2023-07-22T18:56:23;10.35;;;4.25;;
72065;SDS011;59939;52.516;13.420;2023-07-22T18:59:27;13.38;;;4.28;;
72065;SDS011;59939;52.516;13.420;2023-07-22T19:02:30;10.82;;;3.97;;
72065;SDS011;59939;52.516;13.420;2023-07-22T19:05:36;12.38;;;4.28;;
72065;SDS011;59939;52.516;13.420;2023-07-22T19:08:54;11.27;;;4.30;;
72065;SDS011;59939;52.516;13.420;2023-07-22T19:11:58;12.15;;;5.13;;
72065;SDS011;59939;52.516;13.420;2023-07-22T19:15:02;11.75;;;4.15;;
72065;SDS011;59939;52.516;13.420;2023-07-22T19:18:07;11.93;;;4.78;;
72065;SDS011;59939;52.516;13.420;2023-07-22T19:21:11;17.27;;;6.20;;
72065;SDS011;59939;52.516;13.420;2023-07-22T19:24:16;20.95;;;9.88;;
72065;SDS011;59939;52.516;13.420;2023-07-22T19:27:23;20.98;;;9.80;;